sensor_id;sensor_type;location;lat;lon;timestamp;P1;durP1;ratioP1;P2;durP2;ratioP2
20541;SDS011;10429;50.956;9.786;2022-09-24T00:01:36;7.50;;;5.47;;
20541;SDS011;10429;50.956;9.786;2022-09-24T00:04:04;6.20;;;5.60;;
20541;SDS011;10429;50.956;9.786;2022-09-24T00:06:35;10.40;;;5.30;;
20541;SDS011;10429;50.956;9.786;2022-09-24T00:09:01;4.57;;;4.17;;
20541;SDS011;10429;50.956;9.786;2022-09-24T00:11:27;4.30;;;3.90;;
20541;SDS011;10429;50.956;9.786;2022-09-24T00:13:56;5.47;;;4.97;;
20541;SDS011;10429;50.956;9.786;2022-09-24T00:16:23;4.80;;;4.30;;
20541;SDS011;10429;50.956;9.786;2022-09-24T00:18:49;6.73;;;5.00;;
20541;SDS011;10429;50.956;9.786;2022-09-24T00:21:22;5.60;;;4.70;;
20541;SDS011;10429;50.956;9.786;2022-09-24T00:23:49;5.77;;;5.13;;
20541;SDS011;10429;50.956;9.786;2022-09-24T00:26:16;5.10;;;4.60;;
20541;SDS011;10429;50.956;9.786;2022-09-24T00:29:01;4.93;;;4.43;;
20541;SDS011;10429;50.956;9.786;2022-09-24T00:31:27;4.20;;;3.83;;
20541;SDS011;10429;50.956;9.786;2022-09-24T00:33:53;4.20;;;3.87;;
20541;SDS011;10429;50.956;9.786;2022-09-24T00:36:20;4.77;;;3.60;;
20541;SDS011;10429;50.956;9.786;2022-09-24T00:38:50;6.10;;;3.97;;
20541;SDS011;10429;50.956;9.786;2022-09-24T00:41:16;4.20;;;3.80;;
20541;SDS011;10429;50.956;9.786;2022-09-24T00:43:44;5.87;;;4.67;;
20541;SDS011;10429;50.956;9.786;2022-09-24T00:48:46;5.07;;;4.67;;
20541;SDS011;10429;50.956;9.786;2022-09-24T00:51:15;5.87;;;5.10;;
20541;SDS011;10429;50.956;9.786;2022-09-24T00:53:41;7.00;;;5.17;;
20541;SDS011;10429;50.956;9.786;2022-09-24T00:56:11;7.57;;;5.57;;
20541;SDS011;10429;50.956;9.786;2022-09-24T00:58:39;6.80;;;5.90;;
20541;SDS011;10429;50.956;9.786;2022-09-24T01:01:07;6.97;;;5.60;;
20541;SDS011;10429;50.956;9.786;2022-09-24T01:03:33;5.43;;;5.03;;
20541;SDS011;10429;50.956;9.786;2022-09-24T01:06:05;5.90;;;4.90;;
20541;SDS011;10429;50.956;9.786;2022-09-24T01:08:31;5.10;;;4.70;;
20541;SDS011;10429;50.956;9.786;2022-09-24T01:11:12;8.67;;;4.97;;
20541;SDS011;10429;50.956;9.786;2022-09-24T01:13:50;5.67;;;4.80;;
20541;SDS011;10429;50.956;9.786;2022-09-24T01:18:54;10.87;;;5.20;;
20541;SDS011;10429;50.956;9.786;2022-09-24T01:29:54;7.60;;;6.53;;
20541;SDS011;10429;50.956;9.786;2022-09-24T01:32:27;7.47;;;6.20;;
20541;SDS011;10429;50.956;9.786;2022-09-24T01:34:58;7.83;;;6.13;;
20541;SDS011;10429;50.956;9.786;2022-09-24T01:37:26;6.67;;;5.97;;
20541;SDS011;10429;50.956;9.786;2022-09-24T01:39:53;6.60;;;6.10;;
20541;SDS011;10429;50.956;9.786;2022-09-24T01:42:21;6.83;;;6.13;;
20541;SDS011;10429;50.956;9.786;2022-09-24T01:44:49;9.03;;;6.40;;
20541;SDS011;10429;50.956;9.786;2022-09-24T01:47:32;10.07;;;6.63;;
20541;SDS011;10429;50.956;9.786;2022-09-24T01:50:03;6.97;;;6.20;;
20541;SDS011;10429;50.956;9.786;2022-09-24T01:52:32;7.17;;;6.27;;
20541;SDS011;10429;50.956;9.786;2022-09-24T01:54:59;7.00;;;6.30;;
20541;SDS011;10429;50.956;9.786;2022-09-24T01:57:27;5.90;;;5.37;;
20541;SDS011;10429;50.956;9.786;2022-09-24T02:00:07;6.83;;;5.40;;
20541;SDS011;10429;50.956;9.786;2022-09-24T02:08:25;7.30;;;6.00;;
20541;SDS011;10429;50.956;9.786;2022-09-24T02:10:25;6.53;;;5.90;;
20541;SDS011;10429;50.956;9.786;2022-09-24T02:12:54;7.03;;;5.90;;
20541;SDS011;10429;50.956;9.786;2022-09-24T02:15:27;6.17;;;5.57;;
20541;SDS011;10429;50.956;9.786;2022-09-24T02:17:57;5.83;;;5.13;;
20541;SDS011;10429;50.956;9.786;2022-09-24T02:20:25;7.87;;;6.23;;
20541;SDS011;10429;50.956;9.786;2022-09-24T02:22:51;6.30;;;5.70;;
20541;SDS011;10429;50.956;9.786;2022-09-24T02:25:21;8.63;;;5.57;;
20541;SDS011;10429;50.956;9.786;2022-09-24T02:27:48;7.20;;;6.07;;
20541;SDS011;10429;50.956;9.786;2022-09-24T02:30:14;6.50;;;5.90;;
20541;SDS011;10429;50.956;9.786;2022-09-24T02:32:41;6.40;;;5.90;;
20541;SDS011;10429;50.956;9.786;2022-09-24T02:35:08;5.97;;;5.47;;
20541;SDS011;10429;50.956;9.786;2022-09-24T02:37:39;6.70;;;5.97;;
20541;SDS011;10429;50.956;9.786;2022-09-24T02:40:06;5.47;;;5.07;;
20541;SDS011;10429;50.956;9.786;2022-09-24T02:42:33;5.43;;;4.80;;
20541;SDS011;10429;50.956;9.786;2022-09-24T02:44:59;5.73;;;5.10;;
20541;SDS011;10429;50.956;9.786;2022-09-24T02:47:26;5.93;;;5.33;;
20541;SDS011;10429;50.956;9.786;2022-09-24T02:49:53;6.30;;;5.70;;
20541;SDS011;10429;50.956;9.786;2022-09-24T02:52:20;6.20;;;5.70;;
20541;SDS011;10429;50.956;9.786;2022-09-24T02:54:46;9.70;;;5.93;;
20541;SDS011;10429;50.956;9.786;2022-09-24T02:57:14;6.10;;;5.60;;
20541;SDS011;10429;50.956;9.786;2022-09-24T02:59:40;7.60;;;6.33;;
20541;SDS011;10429;50.956;9.786;2022-09-24T03:02:06;7.10;;;6.40;;
20541;SDS011;10429;50.956;9.786;2022-09-24T03:04:32;7.00;;;6.40;;
20541;SDS011;10429;50.956;9.786;2022-09-24T03:06:58;6.33;;;5.70;;
20541;SDS011;10429;50.956;9.786;2022-09-24T03:09:24;5.93;;;5.43;;
20541;SDS011;10429;50.956;9.786;2022-09-24T03:11:50;6.33;;;5.73;;
20541;SDS011;10429;50.956;9.786;2022-09-24T03:14:16;6.00;;;5.40;;
20541;SDS011;10429;50.956;9.786;2022-09-24T03:16:42;8.30;;;5.77;;
20541;SDS011;10429;50.956;9.786;2022-09-24T03:19:08;5.93;;;5.40;;
20541;SDS011;10429;50.956;9.786;2022-09-24T03:21:36;6.17;;;5.60;;
20541;SDS011;10429;50.956;9.786;2022-09-24T03:24:02;7.57;;;5.87;;
20541;SDS011;10429;50.956;9.786;2022-09-24T03:26:29;7.73;;;5.77;;
20541;SDS011;10429;50.956;9.786;2022-09-24T03:28:55;6.83;;;5.63;;
20541;SDS011;10429;50.956;9.786;2022-09-24T03:31:21;8.03;;;5.40;;
20541;SDS011;10429;50.956;9.786;2022-09-24T03:33:48;9.33;;;6.87;;
20541;SDS011;10429;50.956;9.786;2022-09-24T03:36:15;10.23;;;7.43;;
20541;SDS011;10429;50.956;9.786;2022-09-24T03:38:46;7.67;;;6.97;;
20541;SDS011;10429;50.956;9.786;2022-09-24T03:41:13;8.97;;;6.87;;
20541;SDS011;10429;50.956;9.786;2022-09-24T03:43:39;7.43;;;6.73;;
20541;SDS011;10429;50.956;9.786;2022-09-24T03:46:06;7.63;;;6.83;;
20541;SDS011;10429;50.956;9.786;2022-09-24T03:48:33;7.10;;;6.50;;
20541;SDS011;10429;50.956;9.786;2022-09-24T03:51:03;6.93;;;6.27;;
20541;SDS011;10429;50.956;9.786;2022-09-24T03:53:29;7.57;;;6.80;;
20541;SDS011;10429;50.956;9.786;2022-09-24T03:55:56;8.30;;;7.00;;
20541;SDS011;10429;50.956;9.786;2022-09-24T03:58:23;9.03;;;6.60;;
20541;SDS011;10429;50.956;9.786;2022-09-24T04:00:52;7.27;;;6.67;;
20541;SDS011;10429;50.956;9.786;2022-09-24T04:03:18;7.13;;;6.07;;
20541;SDS011;10429;50.956;9.786;2022-09-24T04:05:45;7.27;;;6.10;;
20541;SDS011;10429;50.956;9.786;2022-09-24T04:08:11;8.70;;;6.73;;
20541;SDS011;10429;50.956;9.786;2022-09-24T04:10:38;7.90;;;7.07;;
20541;SDS011;10429;50.956;9.786;2022-09-24T04:13:04;7.03;;;6.33;;
20541;SDS011;10429;50.956;9.786;2022-09-24T04:15:30;8.57;;;7.23;;
20541;SDS011;10429;50.956;9.786;2022-09-24T04:17:58;8.80;;;6.00;;
20541;SDS011;10429;50.956;9.786;2022-09-24T04:20:26;6.87;;;6.27;;
20541;SDS011;10429;50.956;9.786;2022-09-24T04:22:53;7.23;;;6.60;;
20541;SDS011;10429;50.956;9.786;2022-09-24T04:25:20;8.07;;;7.00;;
20541;SDS011;10429;50.956;9.786;2022-09-24T04:27:46;10.43;;;7.33;;
20541;SDS011;10429;50.956;9.786;2022-09-24T04:30:16;9.20;;;8.00;;
20541;SDS011;10429;50.956;9.786;2022-09-24T04:32:45;12.87;;;7.53;;
20541;SDS011;10429;50.956;9.786;2022-09-24T04:35:11;8.47;;;7.67;;
20541;SDS011;10429;50.956;9.786;2022-09-24T04:37:39;9.80;;;8.00;;
20541;SDS011;10429;50.956;9.786;2022-09-24T04:40:05;9.43;;;8.03;;
20541;SDS011;10429;50.956;9.786;2022-09-24T04:42:36;8.57;;;7.63;;
20541;SDS011;10429;50.956;9.786;2022-09-24T04:45:03;7.83;;;6.87;;
20541;SDS011;10429;50.956;9.786;2022-09-24T04:47:30;8.07;;;7.13;;
20541;SDS011;10429;50.956;9.786;2022-09-24T04:49:56;7.53;;;6.77;;
20541;SDS011;10429;50.956;9.786;2022-09-24T04:52:23;8.90;;;8.07;;
20541;SDS011;10429;50.956;9.786;2022-09-24T04:54:53;7.20;;;6.50;;
20541;SDS011;10429;50.956;9.786;2022-09-24T04:57:20;7.57;;;6.20;;
20541;SDS011;10429;50.956;9.786;2022-09-24T04:59:46;7.33;;;6.63;;
20541;SDS011;10429;50.956;9.786;2022-09-24T05:02:13;11.37;;;7.57;;
20541;SDS011;10429;50.956;9.786;2022-09-24T05:04:39;8.93;;;7.93;;
20541;SDS011;10429;50.956;9.786;2022-09-24T05:07:05;10.47;;;8.03;;
20541;SDS011;10429;50.956;9.786;2022-09-24T05:09:31;13.03;;;8.83;;
20541;SDS011;10429;50.956;9.786;2022-09-24T05:11:57;11.60;;;9.07;;
20541;SDS011;10429;50.956;9.786;2022-09-24T05:14:23;12.17;;;9.30;;
20541;SDS011;10429;50.956;9.786;2022-09-24T05:16:50;11.87;;;9.23;;
20541;SDS011;10429;50.956;9.786;2022-09-24T05:19:16;10.47;;;8.83;;
20541;SDS011;10429;50.956;9.786;2022-09-24T05:21:42;12.13;;;8.77;;
20541;SDS011;10429;50.956;9.786;2022-09-24T05:24:08;10.67;;;8.17;;
20541;SDS011;10429;50.956;9.786;2022-09-24T05:26:34;9.73;;;8.03;;
20541;SDS011;10429;50.956;9.786;2022-09-24T05:29:18;16.47;;;8.60;;
20541;SDS011;10429;50.956;9.786;2022-09-24T05:31:44;9.63;;;8.63;;
20541;SDS011;10429;50.956;9.786;2022-09-24T05:34:10;9.90;;;8.17;;
20541;SDS011;10429;50.956;9.786;2022-09-24T05:36:38;10.43;;;7.10;;
20541;SDS011;10429;50.956;9.786;2022-09-24T05:39:04;8.80;;;7.70;;
20541;SDS011;10429;50.956;9.786;2022-09-24T05:41:30;8.60;;;7.23;;
20541;SDS011;10429;50.956;9.786;2022-09-24T05:43:56;11.80;;;7.00;;
20541;SDS011;10429;50.956;9.786;2022-09-24T05:46:23;7.93;;;6.70;;
20541;SDS011;10429;50.956;9.786;2022-09-24T05:48:50;10.00;;;6.73;;
20541;SDS011;10429;50.956;9.786;2022-09-24T05:51:16;12.23;;;7.97;;
20541;SDS011;10429;50.956;9.786;2022-09-24T05:53:42;28.93;;;9.67;;
20541;SDS011;10429;50.956;9.786;2022-09-24T05:56:08;14.60;;;9.10;;
20541;SDS011;10429;50.956;9.786;2022-09-24T05:58:35;18.13;;;8.93;;
20541;SDS011;10429;50.956;9.786;2022-09-24T06:01:01;10.27;;;8.93;;
20541;SDS011;10429;50.956;9.786;2022-09-24T06:03:27;13.73;;;8.67;;
20541;SDS011;10429;50.956;9.786;2022-09-24T06:05:54;12.43;;;9.67;;
20541;SDS011;10429;50.956;9.786;2022-09-24T06:08:26;45.00;;;13.17;;
20541;SDS011;10429;50.956;9.786;2022-09-24T06:10:56;38.47;;;12.20;;
20541;SDS011;10429;50.956;9.786;2022-09-24T06:13:22;51.00;;;10.30;;
20541;SDS011;10429;50.956;9.786;2022-09-24T06:15:49;33.27;;;9.77;;
20541;SDS011;10429;50.956;9.786;2022-09-24T06:18:15;29.77;;;9.20;;
20541;SDS011;10429;50.956;9.786;2022-09-24T06:20:41;45.80;;;9.57;;
20541;SDS011;10429;50.956;9.786;2022-09-24T06:23:08;28.00;;;8.90;;
20541;SDS011;10429;50.956;9.786;2022-09-24T06:25:34;43.43;;;9.07;;
20541;SDS011;10429;50.956;9.786;2022-09-24T06:28:01;145.90;;;10.33;;
20541;SDS011;10429;50.956;9.786;2022-09-24T06:30:34;31.83;;;8.33;;
20541;SDS011;10429;50.956;9.786;2022-09-24T06:33:11;62.00;;;8.90;;
20541;SDS011;10429;50.956;9.786;2022-09-24T06:35:38;66.40;;;9.90;;
20541;SDS011;10429;50.956;9.786;2022-09-24T06:38:05;65.77;;;9.87;;
20541;SDS011;10429;50.956;9.786;2022-09-24T06:40:31;36.97;;;9.77;;
20541;SDS011;10429;50.956;9.786;2022-09-24T06:42:58;53.50;;;9.87;;
20541;SDS011;10429;50.956;9.786;2022-09-24T06:45:24;76.43;;;13.73;;
20541;SDS011;10429;50.956;9.786;2022-09-24T06:47:53;24.43;;;9.80;;
20541;SDS011;10429;50.956;9.786;2022-09-24T06:50:20;63.53;;;12.10;;
20541;SDS011;10429;50.956;9.786;2022-09-24T06:52:49;64.80;;;15.53;;
20541;SDS011;10429;50.956;9.786;2022-09-24T06:55:15;97.67;;;15.33;;
20541;SDS011;10429;50.956;9.786;2022-09-24T06:57:44;60.97;;;13.70;;
20541;SDS011;10429;50.956;9.786;2022-09-24T07:00:10;54.40;;;9.90;;
20541;SDS011;10429;50.956;9.786;2022-09-24T07:02:36;72.90;;;12.20;;
20541;SDS011;10429;50.956;9.786;2022-09-24T07:05:03;93.37;;;14.33;;
20541;SDS011;10429;50.956;9.786;2022-09-24T07:07:29;61.43;;;15.20;;
20541;SDS011;10429;50.956;9.786;2022-09-24T07:09:57;84.97;;;17.33;;
20541;SDS011;10429;50.956;9.786;2022-09-24T07:12:23;115.43;;;14.30;;
20541;SDS011;10429;50.956;9.786;2022-09-24T07:14:49;61.43;;;10.03;;
20541;SDS011;10429;50.956;9.786;2022-09-24T07:17:15;72.53;;;14.57;;
20541;SDS011;10429;50.956;9.786;2022-09-24T07:19:41;28.73;;;8.93;;
20541;SDS011;10429;50.956;9.786;2022-09-24T07:22:07;25.50;;;10.53;;
20541;SDS011;10429;50.956;9.786;2022-09-24T07:24:33;13.97;;;8.30;;
20541;SDS011;10429;50.956;9.786;2022-09-24T07:26:59;13.77;;;8.53;;
20541;SDS011;10429;50.956;9.786;2022-09-24T07:29:25;8.20;;;7.43;;
20541;SDS011;10429;50.956;9.786;2022-09-24T07:31:51;9.13;;;8.23;;
20541;SDS011;10429;50.956;9.786;2022-09-24T07:34:17;7.27;;;6.57;;
20541;SDS011;10429;50.956;9.786;2022-09-24T07:36:43;13.00;;;10.47;;
20541;SDS011;10429;50.956;9.786;2022-09-24T07:39:09;9.43;;;8.10;;
20541;SDS011;10429;50.956;9.786;2022-09-24T07:41:35;11.10;;;9.20;;
20541;SDS011;10429;50.956;9.786;2022-09-24T07:44:02;9.23;;;8.23;;
20541;SDS011;10429;50.956;9.786;2022-09-24T07:46:28;8.50;;;7.60;;
20541;SDS011;10429;50.956;9.786;2022-09-24T07:48:55;7.07;;;6.47;;
20541;SDS011;10429;50.956;9.786;2022-09-24T07:51:24;8.10;;;7.30;;
20541;SDS011;10429;50.956;9.786;2022-09-24T07:53:52;7.50;;;6.80;;
20541;SDS011;10429;50.956;9.786;2022-09-24T07:56:19;8.20;;;7.50;;
20541;SDS011;10429;50.956;9.786;2022-09-24T07:58:51;8.87;;;8.17;;
20541;SDS011;10429;50.956;9.786;2022-09-24T08:01:18;8.80;;;7.90;;
20541;SDS011;10429;50.956;9.786;2022-09-24T08:03:44;8.03;;;7.33;;
20541;SDS011;10429;50.956;9.786;2022-09-24T08:06:11;8.27;;;7.47;;
20541;SDS011;10429;50.956;9.786;2022-09-24T08:08:37;7.90;;;7.20;;
20541;SDS011;10429;50.956;9.786;2022-09-24T08:11:07;9.67;;;7.47;;
20541;SDS011;10429;50.956;9.786;2022-09-24T08:13:34;8.70;;;7.80;;
20541;SDS011;10429;50.956;9.786;2022-09-24T08:16:00;8.93;;;8.13;;
20541;SDS011;10429;50.956;9.786;2022-09-24T08:18:27;8.17;;;7.53;;
20541;SDS011;10429;50.956;9.786;2022-09-24T08:20:55;8.17;;;7.47;;
20541;SDS011;10429;50.956;9.786;2022-09-24T08:23:24;7.83;;;7.13;;
20541;SDS011;10429;50.956;9.786;2022-09-24T08:25:52;7.30;;;6.70;;
20541;SDS011;10429;50.956;9.786;2022-09-24T08:28:18;8.30;;;7.50;;
20541;SDS011;10429;50.956;9.786;2022-09-24T08:30:44;8.70;;;7.90;;
20541;SDS011;10429;50.956;9.786;2022-09-24T08:33:10;7.20;;;6.60;;
20541;SDS011;10429;50.956;9.786;2022-09-24T08:35:37;8.40;;;7.70;;
20541;SDS011;10429;50.956;9.786;2022-09-24T08:38:06;7.50;;;6.80;;
20541;SDS011;10429;50.956;9.786;2022-09-24T08:41:17;6.90;;;6.30;;
20541;SDS011;10429;50.956;9.786;2022-09-24T08:46:01;8.20;;;7.47;;
20541;SDS011;10429;50.956;9.786;2022-09-24T08:48:48;7.80;;;7.10;;
20541;SDS011;10429;50.956;9.786;2022-09-24T08:51:17;6.93;;;6.37;;
20541;SDS011;10429;50.956;9.786;2022-09-24T08:53:49;7.70;;;6.40;;
20541;SDS011;10429;50.956;9.786;2022-09-24T08:56:23;7.63;;;6.83;;
20541;SDS011;10429;50.956;9.786;2022-09-24T09:01:41;7.70;;;7.10;;
20541;SDS011;10429;50.956;9.786;2022-09-24T09:06:58;8.03;;;6.70;;
20541;SDS011;10429;50.956;9.786;2022-09-24T09:09:32;7.97;;;7.03;;
20541;SDS011;10429;50.956;9.786;2022-09-24T09:12:03;7.37;;;6.67;;
20541;SDS011;10429;50.956;9.786;2022-09-24T09:14:40;9.87;;;7.10;;
20541;SDS011;10429;50.956;9.786;2022-09-24T09:19:37;8.30;;;7.60;;
20541;SDS011;10429;50.956;9.786;2022-09-24T09:22:12;8.70;;;7.90;;
20541;SDS011;10429;50.956;9.786;2022-09-24T09:27:04;8.13;;;7.23;;
20541;SDS011;10429;50.956;9.786;2022-09-24T09:29:38;8.03;;;7.23;;
20541;SDS011;10429;50.956;9.786;2022-09-24T09:32:11;7.93;;;7.23;;
20541;SDS011;10429;50.956;9.786;2022-09-24T09:35:03;11.43;;;8.23;;
20541;SDS011;10429;50.956;9.786;2022-09-24T09:42:34;8.20;;;7.40;;
20541;SDS011;10429;50.956;9.786;2022-09-24T09:45:02;10.50;;;7.00;;
20541;SDS011;10429;50.956;9.786;2022-09-24T09:47:42;8.00;;;7.10;;
20541;SDS011;10429;50.956;9.786;2022-09-24T09:50:26;8.07;;;7.27;;
20541;SDS011;10429;50.956;9.786;2022-09-24T09:52:53;7.50;;;6.83;;
20541;SDS011;10429;50.956;9.786;2022-09-24T09:55:23;11.23;;;7.10;;
20541;SDS011;10429;50.956;9.786;2022-09-24T09:57:50;15.33;;;6.80;;
20541;SDS011;10429;50.956;9.786;2022-09-24T10:00:32;14.90;;;7.17;;
20541;SDS011;10429;50.956;9.786;2022-09-24T10:02:59;9.03;;;6.10;;
20541;SDS011;10429;50.956;9.786;2022-09-24T10:05:27;8.03;;;5.97;;
20541;SDS011;10429;50.956;9.786;2022-09-24T10:07:54;11.57;;;6.27;;
20541;SDS011;10429;50.956;9.786;2022-09-24T10:10:22;11.80;;;5.30;;
20541;SDS011;10429;50.956;9.786;2022-09-24T10:12:51;11.47;;;5.60;;
20541;SDS011;10429;50.956;9.786;2022-09-24T10:15:18;8.30;;;5.40;;
20541;SDS011;10429;50.956;9.786;2022-09-24T10:17:48;6.33;;;5.50;;
20541;SDS011;10429;50.956;9.786;2022-09-24T10:22:51;5.67;;;5.07;;
20541;SDS011;10429;50.956;9.786;2022-09-24T10:25:26;5.97;;;5.47;;
20541;SDS011;10429;50.956;9.786;2022-09-24T10:27:54;6.10;;;5.50;;
20541;SDS011;10429;50.956;9.786;2022-09-24T10:30:55;7.83;;;5.03;;
20541;SDS011;10429;50.956;9.786;2022-09-24T10:33:23;5.70;;;5.17;;
20541;SDS011;10429;50.956;9.786;2022-09-24T10:35:50;5.63;;;5.13;;
20541;SDS011;10429;50.956;9.786;2022-09-24T10:38:17;5.73;;;4.57;;
20541;SDS011;10429;50.956;9.786;2022-09-24T10:40:44;5.50;;;4.73;;
20541;SDS011;10429;50.956;9.786;2022-09-24T10:43:20;5.30;;;4.90;;
20541;SDS011;10429;50.956;9.786;2022-09-24T10:48:25;5.30;;;4.80;;
20541;SDS011;10429;50.956;9.786;2022-09-24T10:55:59;4.53;;;4.13;;
20541;SDS011;10429;50.956;9.786;2022-09-24T11:01:23;5.27;;;4.77;;
20541;SDS011;10429;50.956;9.786;2022-09-24T11:04:09;4.60;;;4.20;;
20541;SDS011;10429;50.956;9.786;2022-09-24T11:06:49;4.23;;;3.83;;
20541;SDS011;10429;50.956;9.786;2022-09-24T11:12:14;3.73;;;3.43;;
20541;SDS011;10429;50.956;9.786;2022-09-24T11:33:04;4.60;;;4.20;;
20541;SDS011;10429;50.956;9.786;2022-09-24T11:40:28;4.30;;;3.87;;
20541;SDS011;10429;50.956;9.786;2022-09-24T11:42:59;5.17;;;3.40;;
20541;SDS011;10429;50.956;9.786;2022-09-24T11:50:40;4.23;;;3.57;;
20541;SDS011;10429;50.956;9.786;2022-09-24T11:53:15;3.73;;;3.17;;
20541;SDS011;10429;50.956;9.786;2022-09-24T11:55:48;3.73;;;3.10;;
20541;SDS011;10429;50.956;9.786;2022-09-24T11:58:18;3.60;;;2.87;;
20541;SDS011;10429;50.956;9.786;2022-09-24T12:00:47;4.83;;;2.97;;
20541;SDS011;10429;50.956;9.786;2022-09-24T12:05:55;3.60;;;3.30;;
20541;SDS011;10429;50.956;9.786;2022-09-24T12:08:25;3.27;;;3.07;;
20541;SDS011;10429;50.956;9.786;2022-09-24T12:10:59;3.90;;;2.90;;
20541;SDS011;10429;50.956;9.786;2022-09-24T12:13:32;3.97;;;3.00;;
20541;SDS011;10429;50.956;9.786;2022-09-24T12:16:01;5.33;;;2.70;;
20541;SDS011;10429;50.956;9.786;2022-09-24T12:18:30;6.70;;;2.70;;
20541;SDS011;10429;50.956;9.786;2022-09-24T12:20:58;3.50;;;2.33;;
20541;SDS011;10429;50.956;9.786;2022-09-24T12:23:28;3.37;;;2.40;;
20541;SDS011;10429;50.956;9.786;2022-09-24T12:25:56;3.03;;;2.27;;
20541;SDS011;10429;50.956;9.786;2022-09-24T12:28:23;2.43;;;2.23;;
20541;SDS011;10429;50.956;9.786;2022-09-24T12:31:13;4.13;;;2.63;;
20541;SDS011;10429;50.956;9.786;2022-09-24T12:34:04;3.03;;;2.57;;
20541;SDS011;10429;50.956;9.786;2022-09-24T12:36:37;5.20;;;2.50;;
20541;SDS011;10429;50.956;9.786;2022-09-24T12:39:08;2.43;;;2.23;;
20541;SDS011;10429;50.956;9.786;2022-09-24T12:41:41;4.00;;;2.30;;
20541;SDS011;10429;50.956;9.786;2022-09-24T12:49:03;2.57;;;2.37;;
20541;SDS011;10429;50.956;9.786;2022-09-24T12:51:35;2.60;;;2.40;;
20541;SDS011;10429;50.956;9.786;2022-09-24T12:54:35;3.30;;;2.57;;
20541;SDS011;10429;50.956;9.786;2022-09-24T12:59:58;4.03;;;2.90;;
20541;SDS011;10429;50.956;9.786;2022-09-24T13:02:28;3.10;;;2.80;;
20541;SDS011;10429;50.956;9.786;2022-09-24T13:09:54;4.43;;;2.40;;
20541;SDS011;10429;50.956;9.786;2022-09-24T13:12:21;3.17;;;2.80;;
20541;SDS011;10429;50.956;9.786;2022-09-24T13:14:55;2.50;;;2.07;;
20541;SDS011;10429;50.956;9.786;2022-09-24T13:17:25;2.93;;;2.70;;
20541;SDS011;10429;50.956;9.786;2022-09-24T13:20:07;3.10;;;2.70;;
20541;SDS011;10429;50.956;9.786;2022-09-24T13:22:41;3.27;;;2.20;;
20541;SDS011;10429;50.956;9.786;2022-09-24T13:27:34;4.90;;;2.80;;
20541;SDS011;10429;50.956;9.786;2022-09-24T13:32:37;2.80;;;2.50;;
20541;SDS011;10429;50.956;9.786;2022-09-24T13:35:13;3.00;;;2.70;;
20541;SDS011;10429;50.956;9.786;2022-09-24T13:37:41;3.20;;;2.90;;
20541;SDS011;10429;50.956;9.786;2022-09-24T13:40:14;3.43;;;2.97;;
20541;SDS011;10429;50.956;9.786;2022-09-24T13:42:54;4.20;;;2.57;;
20541;SDS011;10429;50.956;9.786;2022-09-24T13:45:21;2.43;;;2.23;;
20541;SDS011;10429;50.956;9.786;2022-09-24T13:47:52;3.00;;;2.13;;
20541;SDS011;10429;50.956;9.786;2022-09-24T13:52:46;2.70;;;2.50;;
20541;SDS011;10429;50.956;9.786;2022-09-24T13:55:16;2.90;;;2.70;;
20541;SDS011;10429;50.956;9.786;2022-09-24T13:57:43;2.67;;;2.43;;
20541;SDS011;10429;50.956;9.786;2022-09-24T14:05:20;3.10;;;2.80;;
20541;SDS011;10429;50.956;9.786;2022-09-24T14:07:56;5.83;;;2.90;;
20541;SDS011;10429;50.956;9.786;2022-09-24T14:10:23;2.93;;;2.30;;
20541;SDS011;10429;50.956;9.786;2022-09-24T14:12:59;2.43;;;2.23;;
20541;SDS011;10429;50.956;9.786;2022-09-24T14:15:25;3.93;;;2.60;;
20541;SDS011;10429;50.956;9.786;2022-09-24T14:17:57;2.70;;;2.50;;
20541;SDS011;10429;50.956;9.786;2022-09-24T14:20:25;2.97;;;2.40;;
20541;SDS011;10429;50.956;9.786;2022-09-24T14:22:52;3.70;;;2.70;;
20541;SDS011;10429;50.956;9.786;2022-09-24T14:25:27;2.93;;;2.73;;
20541;SDS011;10429;50.956;9.786;2022-09-24T14:27:53;3.00;;;2.70;;
20541;SDS011;10429;50.956;9.786;2022-09-24T14:30:21;3.00;;;2.80;;
20541;SDS011;10429;50.956;9.786;2022-09-24T14:32:52;3.83;;;3.07;;
20541;SDS011;10429;50.956;9.786;2022-09-24T14:35:20;4.37;;;2.20;;
20541;SDS011;10429;50.956;9.786;2022-09-24T14:37:50;3.07;;;2.77;;
20541;SDS011;10429;50.956;9.786;2022-09-24T14:40:17;3.63;;;3.33;;
20541;SDS011;10429;50.956;9.786;2022-09-24T14:42:47;2.87;;;2.63;;
20541;SDS011;10429;50.956;9.786;2022-09-24T14:45:16;4.33;;;2.90;;
20541;SDS011;10429;50.956;9.786;2022-09-24T14:47:43;3.03;;;2.83;;
20541;SDS011;10429;50.956;9.786;2022-09-24T14:50:26;2.80;;;2.60;;
20541;SDS011;10429;50.956;9.786;2022-09-24T14:52:53;3.70;;;3.40;;
20541;SDS011;10429;50.956;9.786;2022-09-24T14:55:40;3.93;;;3.20;;
20541;SDS011;10429;50.956;9.786;2022-09-24T14:58:21;3.70;;;2.70;;
20541;SDS011;10429;50.956;9.786;2022-09-24T15:00:50;4.70;;;2.93;;
20541;SDS011;10429;50.956;9.786;2022-09-24T15:03:21;3.30;;;2.80;;
20541;SDS011;10429;50.956;9.786;2022-09-24T15:05:48;3.00;;;2.70;;
20541;SDS011;10429;50.956;9.786;2022-09-24T15:10:50;3.50;;;3.20;;
20541;SDS011;10429;50.956;9.786;2022-09-24T15:13:17;3.40;;;2.60;;
20541;SDS011;10429;50.956;9.786;2022-09-24T15:15:45;3.83;;;2.30;;
20541;SDS011;10429;50.956;9.786;2022-09-24T15:18:11;5.60;;;3.00;;
20541;SDS011;10429;50.956;9.786;2022-09-24T15:20:41;3.63;;;2.53;;
20541;SDS011;10429;50.956;9.786;2022-09-24T15:23:08;3.10;;;2.80;;
20541;SDS011;10429;50.956;9.786;2022-09-24T15:25:34;4.00;;;3.10;;
20541;SDS011;10429;50.956;9.786;2022-09-24T15:28:00;3.30;;;3.00;;
20541;SDS011;10429;50.956;9.786;2022-09-24T15:30:26;3.27;;;2.50;;
20541;SDS011;10429;50.956;9.786;2022-09-24T15:32:52;4.57;;;3.17;;
20541;SDS011;10429;50.956;9.786;2022-09-24T15:35:18;9.97;;;6.33;;
20541;SDS011;10429;50.956;9.786;2022-09-24T15:37:45;9.60;;;6.63;;
20541;SDS011;10429;50.956;9.786;2022-09-24T15:40:17;13.90;;;8.17;;
20541;SDS011;10429;50.956;9.786;2022-09-24T15:42:47;10.10;;;6.70;;
20541;SDS011;10429;50.956;9.786;2022-09-24T15:45:17;4.77;;;4.10;;
20541;SDS011;10429;50.956;9.786;2022-09-24T15:47:43;3.90;;;3.60;;
20541;SDS011;10429;50.956;9.786;2022-09-24T15:50:09;7.77;;;5.07;;
20541;SDS011;10429;50.956;9.786;2022-09-24T15:52:40;6.90;;;6.23;;
20541;SDS011;10429;50.956;9.786;2022-09-24T15:55:11;6.03;;;5.37;;
20541;SDS011;10429;50.956;9.786;2022-09-24T15:57:37;7.00;;;5.27;;
20541;SDS011;10429;50.956;9.786;2022-09-24T16:00:04;4.13;;;3.73;;
20541;SDS011;10429;50.956;9.786;2022-09-24T16:02:31;4.37;;;3.87;;
20541;SDS011;10429;50.956;9.786;2022-09-24T16:04:58;4.20;;;3.90;;
20541;SDS011;10429;50.956;9.786;2022-09-24T16:07:24;3.73;;;3.43;;
20541;SDS011;10429;50.956;9.786;2022-09-24T16:09:51;3.10;;;2.80;;
20541;SDS011;10429;50.956;9.786;2022-09-24T16:12:18;4.53;;;3.27;;
20541;SDS011;10429;50.956;9.786;2022-09-24T16:14:44;3.67;;;3.37;;
20541;SDS011;10429;50.956;9.786;2022-09-24T16:17:11;3.73;;;2.93;;
20541;SDS011;10429;50.956;9.786;2022-09-24T16:19:39;3.10;;;2.83;;
20541;SDS011;10429;50.956;9.786;2022-09-24T16:22:05;4.40;;;3.13;;
20541;SDS011;10429;50.956;9.786;2022-09-24T16:24:31;5.13;;;3.03;;
20541;SDS011;10429;50.956;9.786;2022-09-24T16:26:57;3.20;;;2.83;;
20541;SDS011;10429;50.956;9.786;2022-09-24T16:29:23;3.10;;;2.70;;
20541;SDS011;10429;50.956;9.786;2022-09-24T16:31:49;3.60;;;3.30;;
20541;SDS011;10429;50.956;9.786;2022-09-24T16:34:15;4.17;;;3.77;;
20541;SDS011;10429;50.956;9.786;2022-09-24T16:36:42;4.77;;;4.03;;
20541;SDS011;10429;50.956;9.786;2022-09-24T16:39:08;5.83;;;3.90;;
20541;SDS011;10429;50.956;9.786;2022-09-24T16:41:34;4.87;;;4.37;;
20541;SDS011;10429;50.956;9.786;2022-09-24T16:44:02;8.73;;;5.97;;
20541;SDS011;10429;50.956;9.786;2022-09-24T16:46:28;7.83;;;6.33;;
20541;SDS011;10429;50.956;9.786;2022-09-24T16:48:55;7.57;;;5.90;;